Terminal Aerodrome Forecast
Issued by NWS

Home | Current Version | Previous Version | Text Only | Print | Product List | Glossary On
Versions: 1 2 3 4 5 6 7 8 9 10 11 12 13 14
000
FTUS44 KOUN 241130
TAFGAG

TAF
KGAG 241120Z 2412/2512 35020G30KT P6SM OVC035
     FM241600 32018G26KT P6SM SCT040
     FM250000 34008KT P6SM SKC
     FM250600 16008KT P6SM SKC=

USA.gov is the U.S. government's official web portal to all federal, state and local government web resources and services.